Time;durP1;ratioP1;P1;durP2;ratioP2;P2;SDS_P1;SDS_P2;PMS_P1;PMS_P2;Temp;Humidity;BMP_temperature;BMP_pressure;BME280_temperature;BME280_humidity;BME280_pressure;Samples;Min_cycle;Max_cycle;Signal;HPM_P1;HPM_P2
2023/08/13 00:01:24;;;;;;;6.13;2.40;;;;;;;19.10;100.00;101620.75;5247312;28;20132;-75
2023/08/13 00:03:55;;;;;;;8.90;2.63;;;;;;;19.11;100.00;101625.88;5247931;28;20757;-75
2023/08/13 00:06:27;;;;;;;12.13;3.17;;;;;;;19.06;100.00;101620.25;5252952;28;20128;-75
2023/08/13 00:08:58;;;;;;;6.20;2.50;;;;;;;19.07;100.00;101626.38;5250926;28;20051;-74
2023/08/13 00:11:29;;;;;;;9.00;2.60;;;;;;;19.06;100.00;101625.56;5251066;28;20086;-75
2023/08/13 00:14:01;;;;;;;6.57;2.10;;;;;;;19.03;100.00;101628.53;5251285;28;20033;-75
2023/08/13 00:16:32;;;;;;;7.78;2.20;;;;;;;19.06;100.00;101619.41;5250967;28;20057;-75
2023/08/13 00:19:03;;;;;;;5.65;2.33;;;;;;;18.92;100.00;101610.28;5248350;28;20040;-75
2023/08/13 00:21:35;;;;;;;11.82;2.80;;;;;;;18.96;100.00;101616.91;5250500;28;20021;-73
2023/08/13 00:24:06;;;;;;;6.45;2.72;;;;;;;18.95;100.00;101617.91;5251636;28;20444;-75
2023/08/13 00:26:38;;;;;;;5.72;1.98;;;;;;;18.92;100.00;101608.44;5253339;28;20047;-75
2023/08/13 00:29:09;;;;;;;6.33;2.27;;;;;;;18.88;100.00;101609.78;5252227;28;20021;-74
2023/08/13 00:31:40;;;;;;;6.93;2.20;;;;;;;18.85;100.00;101610.09;5249053;28;20052;-75
2023/08/13 00:34:11;;;;;;;7.63;2.60;;;;;;;18.85;100.00;101617.25;5248214;28;20383;-73
2023/08/13 00:36:43;;;;;;;7.30;3.20;;;;;;;18.78;100.00;101609.09;5250119;28;20032;-75
2023/08/13 00:39:14;;;;;;;6.82;2.65;;;;;;;18.69;100.00;101610.91;5249690;28;20033;-74
2023/08/13 00:41:45;;;;;;;6.27;2.70;;;;;;;18.71;100.00;101608.97;5249903;28;20558;-75
2023/08/13 00:44:17;;;;;;;9.23;2.80;;;;;;;18.70;100.00;101612.59;5251876;28;20038;-75
2023/08/13 00:46:49;;;;;;;7.03;2.67;;;;;;;18.63;100.00;101608.91;5230442;28;20059;-75
2023/08/13 00:49:20;;;;;;;6.23;2.47;;;;;;;18.62;100.00;101612.56;5249656;28;20035;-75
2023/08/13 00:51:52;;;;;;;9.35;2.83;;;;;;;18.64;100.00;101601.78;5249818;28;20385;-74
2023/08/13 00:54:23;;;;;;;8.93;2.72;;;;;;;18.61;100.00;101600.28;5229430;28;20029;-75
2023/08/13 00:56:55;;;;;;;7.97;2.83;;;;;;;18.54;100.00;101598.44;5249585;28;20103;-75
2023/08/13 00:59:26;;;;;;;6.82;2.47;;;;;;;18.58;100.00;101597.13;5247440;28;20485;-75
2023/08/13 01:01:58;;;;;;;7.57;2.35;;;;;;;18.56;100.00;101605.25;5250741;28;20021;-75
2023/08/13 01:04:29;;;;;;;9.32;3.30;;;;;;;18.52;100.00;101601.25;5226228;28;20030;-75
2023/08/13 01:07:16;;;;;;;11.27;3.53;;;;;;;18.74;100.00;101610.44;5246737;28;20029;-74
2023/08/13 01:09:58;;;;;;;10.15;3.15;;;;;;;18.64;100.00;101605.25;5249653;28;20094;-75
2023/08/13 01:12:41;;;;;;;9.35;2.30;;;;;;;18.59;100.00;101599.59;5248532;28;20033;-75
2023/08/13 01:15:19;;;;;;;7.82;2.67;;;;;;;18.55;100.00;101605.41;5250138;28;20017;-74
2023/08/13 01:17:52;;;;;;;10.45;2.90;;;;;;;18.36;100.00;101607.34;5247587;28;20056;-75
2023/08/13 01:20:28;;;;;;;7.95;2.33;;;;;;;18.45;100.00;101605.56;5251379;28;20029;-74
2023/08/13 01:23:00;;;;;;;7.28;2.35;;;;;;;18.28;100.00;101614.47;5251227;28;20587;-74
2023/08/13 01:25:32;;;;;;;8.63;2.83;;;;;;;18.32;100.00;101607.84;5249806;28;20041;-72
2023/08/13 01:28:08;;;;;;;9.40;2.90;;;;;;;18.38;100.00;101617.81;5248712;28;20068;-75
2023/08/13 01:30:52;;;;;;;9.70;2.75;;;;;;;18.30;100.00;101608.03;5248295;28;20032;-74
2023/08/13 01:33:31;;;;;;;7.93;2.13;;;;;;;18.37;100.00;101613.50;5219170;28;20032;-72
2023/08/13 01:36:05;;;;;;;9.70;2.70;;;;;;;18.15;100.00;101607.81;5249672;28;20036;-75
2023/08/13 01:38:37;;;;;;;7.00;2.42;;;;;;;18.13;100.00;101611.59;5245651;28;20032;-75
2023/08/13 01:41:08;;;;;;;8.35;2.47;;;;;;;18.12;100.00;101615.25;5250076;28;20494;-75
2023/08/13 01:43:39;;;;;;;7.07;2.63;;;;;;;18.17;100.00;101620.91;5247516;28;20120;-74
2023/08/13 01:46:11;;;;;;;10.02;2.40;;;;;;;18.14;100.00;101613.25;5247955;28;20588;-75
2023/08/13 01:48:42;;;;;;;10.43;2.60;;;;;;;18.11;100.00;101613.59;5249065;28;20437;-75
2023/08/13 01:51:13;;;;;;;6.10;2.13;;;;;;;18.14;100.00;101613.25;5249382;28;20430;-73
2023/08/13 01:53:45;;;;;;;7.88;2.88;;;;;;;18.16;100.00;101612.13;5246553;28;20441;-75
2023/08/13 01:56:16;;;;;;;6.72;2.20;;;;;;;18.14;100.00;101606.13;5251959;28;20397;-75
2023/08/13 01:58:47;;;;;;;7.97;2.78;;;;;;;18.15;100.00;101615.78;5253183;28;20568;-75
2023/08/13 02:01:18;;;;;;;7.43;2.15;;;;;;;18.08;100.00;101609.44;5254626;28;20493;-73
2023/08/13 02:03:50;;;;;;;8.45;2.50;;;;;;;18.09;100.00;101607.63;5252471;28;20035;-73
2023/08/13 02:06:22;;;;;;;8.98;2.30;;;;;;;18.06;100.00;101613.25;5253323;28;20808;-75
2023/08/13 02:08:53;;;;;;;11.52;2.75;;;;;;;18.05;100.00;101615.06;5253281;28;20083;-74
2023/08/13 02:11:24;;;;;;;7.83;1.90;;;;;;;18.05;100.00;101609.75;5249833;28;20412;-74
2023/08/13 02:13:55;;;;;;;9.70;2.67;;;;;;;18.05;100.00;101606.28;5254393;28;20259;-75
2023/08/13 02:16:27;;;;;;;12.95;2.67;;;;;;;17.98;100.00;101606.91;5253799;28;20088;-75
2023/08/13 02:18:58;;;;;;;8.60;3.00;;;;;;;17.96;100.00;101595.66;5250321;28;20312;-75
2023/08/13 02:21:29;;;;;;;5.80;2.10;;;;;;;17.98;100.00;101600.78;5253442;28;20025;-75
2023/08/13 02:24:00;;;;;;;8.68;2.35;;;;;;;17.96;100.00;101600.13;5252592;28;20120;-75
2023/08/13 02:26:32;;;;;;;8.07;2.27;;;;;;;17.93;100.00;101590.66;5251535;28;20021;-73
2023/08/13 02:29:03;;;;;;;6.72;2.33;;;;;;;17.99;100.00;101600.63;5249063;28;20303;-75
2023/08/13 02:31:34;;;;;;;8.57;2.58;;;;;;;17.88;100.00;101592.13;5254955;28;20037;-72
2023/08/13 02:34:06;;;;;;;7.55;2.63;;;;;;;17.89;100.00;101599.94;5253478;28;20026;-74
2023/08/13 02:36:37;;;;;;;6.95;2.20;;;;;;;17.89;100.00;101591.97;5253495;28;20541;-75
2023/08/13 02:39:08;;;;;;;5.82;2.15;;;;;;;17.85;100.00;101589.81;5252911;28;20467;-75
2023/08/13 02:41:39;;;;;;;9.95;2.75;;;;;;;17.87;100.00;101593.94;5250952;28;20029;-74
2023/08/13 02:44:11;;;;;;;8.85;2.35;;;;;;;17.85;100.00;101589.81;5249708;28;20033;-72
2023/08/13 02:46:42;;;;;;;8.18;2.78;;;;;;;17.83;100.00;101589.94;5251891;28;20398;-74
2023/08/13 02:49:14;;;;;;;8.63;2.33;;;;;;;17.80;100.00;101582.31;5250142;28;20458;-75
2023/08/13 02:51:45;;;;;;;8.20;2.63;;;;;;;17.75;100.00;101582.78;5252236;28;20020;-75
2023/08/13 02:54:16;;;;;;;6.85;2.35;;;;;;;17.76;100.00;101578.31;5249557;28;20387;-75
2023/08/13 02:56:47;;;;;;;7.22;2.53;;;;;;;17.83;100.00;101586.47;5254384;28;20086;-75
2023/08/13 02:59:19;;;;;;;7.72;2.22;;;;;;;17.80;100.00;101579.66;5254999;28;20049;-75
2023/08/13 03:01:50;;;;;;;6.78;2.10;;;;;;;17.72;100.00;101583.06;5253010;28;20086;-74
2023/08/13 03:04:21;;;;;;;9.25;2.38;;;;;;;17.70;100.00;101584.25;5251946;28;20779;-75
2023/08/13 03:06:52;;;;;;;7.20;2.53;;;;;;;17.72;100.00;101577.78;5251126;28;20040;-72
2023/08/13 03:09:24;;;;;;;8.13;2.15;;;;;;;17.72;100.00;101577.78;5250870;28;20100;-75
2023/08/13 03:11:55;;;;;;;8.60;2.33;;;;;;;17.69;100.00;101580.78;5251981;28;20021;-75
2023/08/13 03:14:26;;;;;;;6.65;2.10;;;;;;;17.63;100.00;101586.69;5252138;28;20024;-75
2023/08/13 03:16:58;;;;;;;7.90;2.40;;;;;;;17.34;100.00;101539.34;5251575;28;20106;-75
2023/08/13 03:19:29;;;;;;;5.93;2.10;;;;;;;17.60;100.00;101576.41;5251314;28;20028;-74
2023/08/13 03:22:00;;;;;;;7.55;2.70;;;;;;;17.47;100.00;101576.84;5252274;28;20020;-75
2023/08/13 03:24:32;;;;;;;8.65;2.33;;;;;;;17.50;100.00;101592.44;5252205;28;20044;-74
2023/08/13 03:27:03;;;;;;;11.90;2.80;;;;;;;17.54;100.00;101592.09;5250737;28;20048;-75
2023/08/13 03:29:34;;;;;;;6.30;2.28;;;;;;;17.44;100.00;101589.56;5250699;28;20508;-75
2023/08/13 03:32:06;;;;;;;9.93;2.72;;;;;;;17.43;100.00;101587.91;5253313;28;20039;-74
2023/08/13 03:34:37;;;;;;;7.07;2.42;;;;;;;17.44;100.00;101585.09;5232297;28;20024;-74
2023/08/13 03:37:08;;;;;;;7.57;2.47;;;;;;;17.45;100.00;101592.06;5250361;28;20033;-72
2023/08/13 03:39:39;;;;;;;6.68;2.35;;;;;;;17.45;100.00;101583.28;5253118;28;20025;-75
2023/08/13 03:42:11;;;;;;;8.77;2.60;;;;;;;17.42;100.00;101575.63;5252131;28;20037;-75
2023/08/13 03:44:43;;;;;;;5.63;2.33;;;;;;;17.41;100.00;101577.47;5252498;28;20022;-74
2023/08/13 03:47:14;;;;;;;8.68;2.20;;;;;;;17.42;100.00;101583.59;5249606;28;20064;-75
2023/08/13 03:49:45;;;;;;;6.50;2.25;;;;;;;17.39;100.00;101581.28;5251023;28;20074;-75
2023/08/13 03:52:17;;;;;;;10.38;2.05;;;;;;;17.38;100.00;101580.41;5249971;28;20025;-75
2023/08/13 03:54:48;;;;;;;6.85;2.47;;;;;;;17.35;100.00;101586.06;5250488;28;20091;-72
2023/08/13 03:57:19;;;;;;;7.95;2.50;;;;;;;17.34;100.00;101584.38;5249102;28;20095;-74
2023/08/13 03:59:50;;;;;;;6.35;2.22;;;;;;;17.38;100.00;101587.53;5253470;28;20025;-73
2023/08/13 04:02:22;;;;;;;6.60;2.72;;;;;;;17.37;100.00;101592.00;5252584;28;20527;-75
2023/08/13 04:04:53;;;;;;;10.80;3.00;;;;;;;17.34;100.00;101591.50;5250794;28;20029;-74
2023/08/13 04:07:24;;;;;;;6.35;2.55;;;;;;;17.32;100.00;101591.66;5230248;28;20028;-75
2023/08/13 04:09:56;;;;;;;7.63;2.60;;;;;;;17.32;100.00;101598.78;5249881;28;20116;-75
2023/08/13 04:12:27;;;;;;;8.13;2.60;;;;;;;17.24;100.00;101581.84;5250905;28;20017;-74
2023/08/13 04:14:58;;;;;;;10.13;2.63;;;;;;;17.31;100.00;101600.56;5251344;28;20277;-75
2023/08/13 04:17:29;;;;;;;8.98;2.95;;;;;;;17.29;100.00;101591.13;5250127;28;20170;-75
2023/08/13 04:20:01;;;;;;;8.32;2.65;;;;;;;17.31;100.00;101597.09;5251036;28;20028;-75
2023/08/13 04:22:32;;;;;;;7.80;2.50;;;;;;;17.25;100.00;101590.63;5252487;28;20036;-74
2023/08/13 04:25:03;;;;;;;6.50;2.92;;;;;;;17.29;100.00;101599.91;5247182;28;20128;-74
2023/08/13 04:27:35;;;;;;;8.18;2.42;;;;;;;17.28;100.00;101600.91;5249646;28;20599;-75
2023/08/13 04:30:07;;;;;;;11.13;3.22;;;;;;;17.32;100.00;101602.25;5251421;28;20025;-77
2023/08/13 04:32:39;;;;;;;7.18;2.13;;;;;;;17.34;100.00;101602.09;5247899;28;20112;-73
2023/08/13 04:35:10;;;;;;;8.10;2.78;;;;;;;17.31;100.00;101597.91;5247036;28;20029;-75
2023/08/13 04:37:41;;;;;;;8.68;2.53;;;;;;;17.33;100.00;101590.66;5251391;28;20021;-73
2023/08/13 04:40:13;;;;;;;10.32;2.97;;;;;;;17.33;100.00;101595.13;5249264;28;20489;-74
2023/08/13 04:42:44;;;;;;;7.90;2.47;;;;;;;17.27;100.00;101594.78;5245479;28;20030;-73
2023/08/13 04:45:15;;;;;;;9.73;2.75;;;;;;;17.23;100.00;101581.97;5251104;28;20033;-73
2023/08/13 04:47:47;;;;;;;8.10;2.80;;;;;;;17.30;100.00;101592.78;5251520;28;20108;-74
2023/08/13 04:50:18;;;;;;;8.32;2.80;;;;;;;17.32;100.00;101606.72;5249074;28;20417;-73
2023/08/13 04:52:49;;;;;;;8.88;3.38;;;;;;;17.35;100.00;101607.25;5251481;28;20027;-73
2023/08/13 04:55:20;;;;;;;7.90;2.88;;;;;;;17.35;100.00;101604.59;5253043;28;20031;-73
2023/08/13 04:57:52;;;;;;;10.05;2.83;;;;;;;17.28;100.00;101585.00;5249203;28;20071;-73
2023/08/13 05:00:23;;;;;;;7.38;2.70;;;;;;;17.36;100.00;101602.78;5249394;28;20116;-73
2023/08/13 05:02:54;;;;;;;8.07;2.83;;;;;;;17.38;100.00;101595.47;5253671;28;20039;-73
2023/08/13 05:05:25;;;;;;;10.57;2.88;;;;;;;17.42;100.00;101595.00;5250139;28;20028;-75
2023/08/13 05:07:57;;;;;;;12.00;3.15;;;;;;;17.42;100.00;101592.34;5249530;28;20580;-73
2023/08/13 05:10:28;;;;;;;10.23;3.03;;;;;;;17.46;100.00;101596.38;5250436;28;20551;-76
2023/08/13 05:13:01;;;;;;;9.73;3.03;;;;;;;17.46;100.00;101585.78;5251147;28;20477;-73
2023/08/13 05:15:32;;;;;;;8.63;2.85;;;;;;;17.46;100.00;101588.44;5249709;28;20056;-75
2023/08/13 05:18:04;;;;;;;8.43;2.83;;;;;;;17.51;100.00;101595.91;5250115;28;20509;-73
2023/08/13 05:20:35;;;;;;;8.38;2.75;;;;;;;17.52;100.00;101597.56;5250979;28;20426;-75
2023/08/13 05:23:06;;;;;;;5.50;2.33;;;;;;;17.52;100.00;101602.84;5250260;28;20119;-73
2023/08/13 05:25:38;;;;;;;9.80;3.60;;;;;;;17.57;100.00;101597.91;5246524;28;20040;-76
2023/08/13 05:28:09;;;;;;;8.57;2.75;;;;;;;17.56;100.00;101606.03;5249912;28;20498;-73
2023/08/13 05:30:40;;;;;;;8.45;2.45;;;;;;;17.61;100.00;101607.19;5247399;28;20033;-76
2023/08/13 05:33:12;;;;;;;7.63;2.47;;;;;;;17.65;100.00;101611.22;5230709;28;20139;-73
2023/08/13 05:35:43;;;;;;;10.43;3.75;;;;;;;17.60;100.00;101610.84;5251460;28;20474;-73
2023/08/13 05:38:14;;;;;;;7.68;2.92;;;;;;;17.60;100.00;101604.72;5248161;28;20024;-73
2023/08/13 05:40:47;;;;;;;8.23;2.92;;;;;;;17.66;100.00;101606.75;5250106;28;20033;-73
2023/08/13 05:43:18;;;;;;;6.00;2.50;;;;;;;17.66;100.00;101604.94;5250596;28;20033;-74
2023/08/13 05:45:50;;;;;;;7.88;2.70;;;;;;;17.67;100.00;101614.53;5230530;28;20501;-76
2023/08/13 05:48:21;;;;;;;8.00;2.88;;;;;;;17.71;100.00;101613.22;5248501;28;20137;-75
2023/08/13 05:50:52;;;;;;;8.00;2.53;;;;;;;17.74;100.00;101617.38;5247544;28;20301;-73
2023/08/13 05:53:23;;;;;;;9.00;2.63;;;;;;;17.77;100.00;101603.00;5250056;28;20036;-74
2023/08/13 05:55:58;;;;;;;8.93;2.70;;;;;;;17.92;100.00;101617.34;5247266;28;20032;-74
2023/08/13 05:58:29;;;;;;;8.10;2.55;;;;;;;17.87;100.00;101614.31;5247927;28;20032;-73
2023/08/13 06:01:01;;;;;;;10.85;2.95;;;;;;;17.94;100.00;101612.69;5248372;28;20482;-74
2023/08/13 06:03:33;;;;;;;6.68;2.50;;;;;;;18.01;100.00;101616.38;5248942;28;20494;-76
2023/08/13 06:06:04;;;;;;;7.32;2.50;;;;;;;18.13;100.00;101616.91;5201949;28;20032;-74
2023/08/13 06:08:35;;;;;;;6.72;2.60;;;;;;;18.22;100.00;101624.75;5248916;28;20033;-73
2023/08/13 06:11:06;;;;;;;6.68;2.50;;;;;;;18.28;100.00;101614.47;5251148;28;20028;-73
2023/08/13 06:13:38;;;;;;;8.93;2.85;;;;;;;18.32;100.00;101618.47;5246172;28;20025;-76
2023/08/13 06:16:10;;;;;;;7.43;2.80;;;;;;;18.39;100.00;101615.00;5246053;28;20049;-73
2023/08/13 06:18:41;;;;;;;7.97;2.78;;;;;;;18.46;100.00;101616.00;5247384;28;20025;-74
2023/08/13 06:21:13;;;;;;;9.60;2.80;;;;;;;18.50;100.00;101616.50;5241459;28;20025;-74
2023/08/13 06:23:44;;;;;;;8.25;2.60;;;;;;;18.56;100.00;101618.53;5247838;28;20029;-73
2023/08/13 06:26:15;;;;;;;7.20;2.72;;;;;;;18.63;100.00;101619.50;5245995;28;20474;-74
2023/08/13 06:28:46;;;;;;;8.00;2.40;;;;;;;18.66;100.00;101616.53;5245704;28;20121;-75
2023/08/13 06:31:18;;;;;;;6.72;2.55;;;;;;;18.69;100.00;101612.72;5250547;28;20021;-75
2023/08/13 06:33:49;;;;;;;10.15;2.70;;;;;;;18.71;100.00;101616.91;5246313;28;20052;-74
2023/08/13 06:36:20;;;;;;;8.40;2.80;;;;;;;18.87;100.00;101617.94;5249892;28;20037;-73
2023/08/13 06:38:51;;;;;;;7.95;2.80;;;;;;;19.01;100.00;101625.19;5241482;28;20171;-74
2023/08/13 06:41:23;;;;;;;9.20;2.80;;;;;;;19.11;100.00;101625.88;5244748;28;20029;-73
2023/08/13 06:43:54;;;;;;;7.95;2.60;;;;;;;19.20;100.00;101621.38;5250769;28;20025;-77
2023/08/13 06:46:25;;;;;;;7.60;2.90;;;;;;;19.25;100.00;101624.38;5250948;28;20060;-73
2023/08/13 06:48:57;;;;;;;9.45;2.88;;;;;;;19.23;100.00;101618.38;5250432;28;20064;-73
2023/08/13 06:51:29;;;;;;;7.17;2.57;;;;;;;19.37;100.00;101616.88;5252892;28;20068;-73
2023/08/13 06:54:00;;;;;;;11.07;2.83;;;;;;;19.38;100.00;101618.53;5250602;28;20092;-76
2023/08/13 06:56:32;;;;;;;7.25;2.50;;;;;;;19.51;100.00;101623.31;5249865;28;20029;-74
2023/08/13 06:59:04;;;;;;;8.13;2.50;;;;;;;19.53;100.00;101611.53;5252823;28;20037;-75
2023/08/13 07:01:35;;;;;;;7.37;2.80;;;;;;;19.66;100.00;101622.50;5248303;28;20040;-74
2023/08/13 07:04:07;;;;;;;7.17;2.20;;;;;;;19.75;100.00;101615.31;5253512;28;20479;-75
2023/08/13 07:06:38;;;;;;;8.03;2.50;;;;;;;19.88;100.00;101620.06;5249406;28;20056;-73
2023/08/13 07:09:09;;;;;;;7.47;2.60;;;;;;;20.02;100.00;101611.38;5251995;28;20036;-73
2023/08/13 07:11:41;;;;;;;7.05;2.75;;;;;;;20.08;100.00;101612.53;5250628;28;20103;-73
2023/08/13 07:14:12;;;;;;;8.98;2.78;;;;;;;20.17;100.00;101612.31;5252860;28;20057;-75
2023/08/13 07:16:43;;;;;;;8.70;2.63;;;;;;;20.28;100.00;101615.59;5250809;28;20037;-75
2023/08/13 07:19:14;;;;;;;8.07;2.65;;;;;;;20.32;100.00;101607.06;5250760;28;20029;-75
2023/08/13 07:21:46;;;;;;;8.82;3.03;;;;;;;20.49;100.00;101617.59;5250808;28;20029;-73
2023/08/13 07:24:17;;;;;;;5.45;2.33;;;;;;;20.59;100.00;101611.06;5248908;28;20036;-74
2023/08/13 07:26:49;;;;;;;8.10;2.83;;;;;;;20.70;100.00;101619.66;5244681;28;20031;-75
2023/08/13 07:29:20;;;;;;;10.27;2.57;;;;;;;20.74;100.00;101603.16;5249928;28;20032;-73
2023/08/13 07:31:51;;;;;;;9.40;3.08;;;;;;;20.95;100.00;101612.28;5249144;28;20465;-74
2023/08/13 07:34:23;;;;;;;6.23;2.13;;;;;;;21.09;100.00;101616.84;5252034;28;20061;-75
2023/08/13 07:36:54;;;;;;;6.53;2.17;;;;;;;21.20;100.00;101610.25;5250348;28;20033;-74
2023/08/13 07:39:25;;;;;;;11.30;3.03;;;;;;;21.27;100.00;101611.19;5251078;28;20033;-77
2023/08/13 07:41:56;;;;;;;5.43;2.00;;;;;;;21.38;100.00;101608.91;5250098;28;20043;-74
2023/08/13 07:44:28;;;;;;;6.77;2.40;;;;;;;21.48;100.00;101611.34;5251590;28;20028;-74
2023/08/13 07:47:00;;;;;;;6.00;1.90;;;;;;;21.59;100.00;101610.88;5251410;28;20090;-73
2023/08/13 07:49:31;;;;;;;8.30;2.70;;;;;;;21.67;100.00;101612.63;5249070;28;20026;-74
2023/08/13 07:52:03;;;;;;;6.87;2.10;;;;;;;21.71;100.00;101613.09;5251640;28;20335;-73
2023/08/13 07:54:36;;;;;;;4.70;1.70;;;;;;;21.77;100.00;101605.16;5247579;28;20024;-73
2023/08/13 07:57:08;;;;;;;8.23;2.40;;;;;;;21.94;100.00;101595.13;5229691;28;20128;-73
2023/08/13 07:59:39;;;;;;;6.10;2.17;;;;;;;22.03;100.00;101601.97;5250868;28;20029;-73
2023/08/13 08:02:10;;;;;;;7.37;2.00;;;;;;;22.11;100.00;101599.19;5250620;28;20036;-74
2023/08/13 08:04:42;;;;;;;8.47;2.10;;;;;;;22.04;100.00;101589.47;5249756;28;20078;-75
2023/08/13 08:07:13;;;;;;;7.60;2.30;;;;;;;22.17;100.00;101603.00;5250897;28;20037;-74
2023/08/13 08:09:44;;;;;;;6.00;2.70;;;;;;;22.25;100.00;101604.75;5253700;28;20067;-77
2023/08/13 08:12:16;;;;;;;10.03;2.37;;;;;;;22.26;100.00;101607.19;5245461;28;20040;-75
2023/08/13 08:14:47;;;;;;;10.07;2.77;;;;;;;22.23;100.00;101601.41;5252118;28;20077;-74
2023/08/13 08:17:18;;;;;;;9.80;2.13;;;;;;;22.36;100.00;101611.44;5251175;28;20052;-75
2023/08/13 08:19:50;;;;;;;7.00;1.80;;;;;;;22.49;100.00;101611.56;5247831;28;20495;-76
2023/08/13 08:22:21;;;;;;;10.50;2.63;;;;;;;22.44;100.00;101608.63;5249641;28;20500;-76
2023/08/13 08:24:54;;;;;;;7.37;2.73;;;;;;;22.47;100.00;101606.41;5251472;28;20091;-76
2023/08/13 08:27:25;;;;;;;6.57;2.20;;;;;;;22.42;100.00;101606.13;5249904;28;20445;-76
2023/08/13 08:29:56;;;;;;;8.10;2.37;;;;;;;22.55;100.00;101608.94;5251185;28;20037;-74
2023/08/13 08:32:30;;;;;;;8.23;2.50;;;;;;;22.67;100.00;101609.28;5245742;28;20017;-74
2023/08/13 08:35:03;;;;;;;8.27;2.20;;;;;;;22.64;100.00;101609.66;5247399;28;20054;-74
2023/08/13 08:37:34;;;;;;;6.30;2.03;;;;;;;22.68;100.00;101602.91;5250507;28;20025;-74
2023/08/13 08:40:07;;;;;;;7.53;2.10;;;;;;;22.81;100.00;101596.88;5249986;28;20032;-75
2023/08/13 08:42:41;;;;;;;7.78;2.03;;;;;;;22.75;100.00;101594.94;5246441;28;20025;-74
2023/08/13 08:45:13;;;;;;;8.23;2.20;;;;;;;22.81;100.00;101589.69;5246341;28;20028;-75
2023/08/13 08:47:46;;;;;;;7.13;2.10;;;;;;;22.85;100.00;101598.13;5247035;28;20036;-75
2023/08/13 08:50:18;;;;;;;8.82;2.40;;;;;;;22.83;100.00;101600.97;5246448;28;20032;-73
2023/08/13 08:52:49;;;;;;;8.03;2.03;;;;;;;;;;5246777;28;20371;-74
2023/08/13 08:55:21;;;;;;;7.13;2.17;;;;;;;23.16;100.00;101592.44;5241090;28;20028;-76
2023/08/13 08:57:54;;;;;;;6.87;1.80;;;;;;;23.20;100.00;101590.19;5245778;28;20029;-76
2023/08/13 09:00:25;;;;;;;10.02;2.45;;;;;;;23.31;100.00;101593.16;5249044;28;20535;-76
2023/08/13 09:02:56;;;;;;;7.67;2.33;;;;;;;23.42;100.00;101589.13;5251871;28;20029;-73
2023/08/13 09:05:28;;;;;;;6.90;2.27;;;;;;;23.39;100.00;101586.81;5248896;28;20260;-74
2023/08/13 09:07:59;;;;;;;4.17;1.67;;;;;;;23.39;100.00;101578.81;5248782;28;20028;-75
2023/08/13 09:10:34;;;;;;;6.80;2.07;;;;;;;23.57;100.00;101570.25;5246686;28;20033;-74
2023/08/13 09:13:07;;;;;;;8.30;2.85;;;;;;;23.54;100.00;101578.69;5249952;28;20094;-75
2023/08/13 09:15:42;;;;;;;7.03;2.15;;;;;;;23.60;100.00;101580.56;5249396;28;20087;-74
2023/08/13 09:18:14;;;;;;;6.68;2.05;;;;;;;23.63;100.00;101574.81;5243325;28;20041;-74
2023/08/13 09:20:47;;;;;;;5.27;2.30;;;;;;;23.71;100.00;101579.19;5245823;28;20406;-76
2023/08/13 09:23:23;;;;;;;8.63;2.00;;;;;;;23.79;100.00;101568.34;5246810;28;20111;-75
2023/08/13 09:25:57;;;;;;;7.15;1.98;;;;;;;23.81;100.00;101576.97;5245276;28;20119;-77
2023/08/13 09:28:29;;;;;;;6.63;2.00;;;;;;;23.75;100.00;101565.25;5247237;28;20135;-74
2023/08/13 09:31:00;;;;;;;6.17;1.80;;;;;;;23.88;95.15;101561.78;5247793;28;20025;-74
2023/08/13 09:33:32;;;;;;;5.70;1.73;;;;;;;23.98;96.97;101561.38;5246877;28;20033;-78
2023/08/13 09:36:03;;;;;;;7.93;2.13;;;;;;;24.06;94.65;101563.09;5244296;28;20029;-75
2023/08/13 09:38:35;;;;;;;6.80;2.27;;;;;;;24.06;94.88;101555.88;5244259;28;20117;-74
2023/08/13 09:41:10;;;;;;;8.70;2.73;;;;;;;24.33;93.46;101547.91;5248047;28;20597;-74
2023/08/13 09:43:47;;;;;;;6.23;2.20;;;;;;;24.30;91.60;101545.63;5248063;28;20052;-75
2023/08/13 09:46:25;;;;;;;4.22;1.90;;;;;;;24.51;93.12;101540.13;5242823;28;20102;-76
2023/08/13 09:48:59;;;;;;;6.93;2.45;;;;;;;24.52;87.31;101537.22;5244904;28;20502;-75
2023/08/13 09:51:32;;;;;;;6.22;2.33;;;;;;;24.63;89.39;101543.00;5246472;28;20077;-74
2023/08/13 09:54:14;;;;;;;7.15;2.28;;;;;;;24.77;86.20;101544.63;5248144;28;20040;-74
2023/08/13 09:56:55;;;;;;;7.05;2.22;;;;;;;24.85;86.51;101538.22;5248273;28;20029;-74
2023/08/13 09:59:27;;;;;;;8.90;2.45;;;;;;;24.74;83.80;101537.84;5248273;28;20048;-74
2023/08/13 10:01:59;;;;;;;5.65;2.03;;;;;;;24.75;80.68;101533.31;5249184;28;20025;-74
2023/08/13 10:04:31;;;;;;;8.80;2.60;;;;;;;24.68;77.32;101529.81;5247256;28;20083;-74
2023/08/13 10:07:04;;;;;;;6.55;2.08;;;;;;;24.73;80.12;101535.34;5248967;28;20502;-73
2023/08/13 10:09:37;;;;;;;5.45;2.30;;;;;;;24.90;81.16;101527.72;5251093;28;20039;-74
2023/08/13 10:12:10;;;;;;;7.18;2.45;;;;;;;25.10;80.23;101530.41;5246168;28;20028;-73
2023/08/13 10:14:41;;;;;;;5.60;2.00;;;;;;;25.20;76.14;101528.13;5249847;28;20108;-74
2023/08/13 10:17:17;;;;;;;8.17;2.30;;;;;;;25.49;79.56;101532.13;5249256;28;20478;-75
2023/08/13 10:19:49;;;;;;;6.60;2.22;;;;;;;25.34;75.15;101531.56;5249835;28;20041;-76
2023/08/13 10:22:40;;;;;;;7.50;2.45;;;;;;;25.70;76.13;101534.53;5253891;28;20032;-78
2023/08/13 10:25:26;;;;;;;6.72;2.22;;;;;;;25.50;75.95;101531.13;5253782;28;20029;-76
2023/08/13 10:27:58;;;;;;;6.63;2.30;;;;;;;25.24;79.27;101532.03;5251811;28;20033;-74
2023/08/13 10:30:30;;;;;;;5.03;1.60;;;;;;;25.09;77.33;101518.81;5263018;22;20058;-77
2023/08/13 10:33:03;;;;;;;6.75;1.90;;;;;;;25.06;77.79;101531.81;5243687;28;20504;-77
2023/08/13 10:35:37;;;;;;;7.80;2.17;;;;;;;25.06;82.38;101523.78;5242133;28;20029;-76
2023/08/13 10:38:09;;;;;;;6.22;2.00;;;;;;;25.03;80.12;101530.38;5249440;28;20032;-76
2023/08/13 10:40:58;;;;;;;7.75;2.60;;;;;;;25.46;82.08;101522.66;5269771;28;20043;-77
2023/08/13 10:43:30;;;;;;;5.35;1.95;;;;;;;25.16;76.24;101521.53;5241408;28;20486;-76
2023/08/13 10:46:05;;;;;;;8.07;2.90;;;;;;;25.12;73.50;101523.81;5236094;23;20422;-75
2023/08/13 10:48:36;;;;;;;6.45;2.22;;;;;;;25.09;75.85;101518.81;5230756;28;20709;-75
2023/08/13 10:51:09;;;;;;;6.07;2.10;;;;;;;25.29;75.66;101517.97;5232690;28;20033;-75
2023/08/13 10:53:40;;;;;;;5.53;2.10;;;;;;;25.52;76.00;101518.31;5234506;28;20033;-75
2023/08/13 10:56:17;;;;;;;6.33;2.00;;;;;;;25.83;72.27;101524.78;5254799;28;20017;-75
2023/08/13 10:58:50;;;;;;;5.78;2.55;;;;;;;25.95;73.58;101513.19;5255166;28;20027;-75
2023/08/13 11:01:21;;;;;;;7.57;2.47;;;;;;;26.08;71.08;101514.94;5253364;28;20480;-75
2023/08/13 11:03:54;;;;;;;5.73;2.07;;;;;;;26.20;67.25;101507.81;5256107;28;20074;-75
2023/08/13 11:06:27;;;;;;;8.98;2.50;;;;;;;26.24;65.29;101516.28;5253119;28;20037;-75
2023/08/13 11:08:59;;;;;;;8.93;2.25;;;;;;;26.20;66.37;101509.69;5255722;28;20013;-75
2023/08/13 11:11:30;;;;;;;7.80;2.50;;;;;;;26.14;66.18;101511.41;5253105;28;20025;-75
2023/08/13 11:14:01;;;;;;;7.90;1.93;;;;;;;26.41;68.94;101505.84;5255155;28;20060;-75
2023/08/13 11:16:33;;;;;;;6.23;2.47;;;;;;;26.46;66.85;101507.88;5253780;28;20116;-75
2023/08/13 11:19:04;;;;;;;7.77;2.47;;;;;;;26.36;67.10;101500.28;5253749;28;20581;-75
2023/08/13 11:21:36;;;;;;;6.47;2.20;;;;;;;26.56;66.79;101500.16;5249506;28;20028;-75
2023/08/13 11:24:10;;;;;;;5.13;2.20;;;;;;;26.58;67.57;101500.75;5253422;28;20029;-75
2023/08/13 11:26:42;;;;;;;7.03;2.45;;;;;;;26.23;66.18;101508.44;5252583;28;20111;-75
2023/08/13 11:29:13;;;;;;;7.67;2.93;;;;;;;26.31;67.68;101503.63;5253824;28;20021;-75
2023/08/13 11:31:45;;;;;;;7.17;1.97;;;;;;;26.15;65.46;101504.16;5251944;28;20310;-75
2023/08/13 11:34:17;;;;;;;5.35;1.83;;;;;;;26.28;62.17;101505.91;5253731;28;20388;-75
2023/08/13 11:36:52;;;;;;;5.13;2.22;;;;;;;26.24;63.20;101504.72;5254067;28;20041;-75
2023/08/13 11:39:23;;;;;;;8.52;2.80;;;;;;;26.23;66.57;101511.13;5251604;28;20029;-75
2023/08/13 11:42:07;;;;;;;11.18;3.25;;;;;;;26.46;63.30;101500.66;5253848;28;20485;-75